This is the latest recevied weather packets stored in our database for station/object WX4FUN-13. If no packets are shown the sender has not sent any weather packets the latest 10 day(s).
| Time | Temp. | Humidity | Pressure | Rain* | Wind** | Luminosity | Snow |
|---|---|---|---|---|---|---|---|
| 1777238417 | 21.67° C | 26% | 1019.5 hPa | 0 mm | - | 347 W/m² | - |
| 1777237820 | 21.67° C | 26% | 1019.4 hPa | 0 mm | - | 381 W/m² | - |
| 1777237217 | 21.11° C | 28% | 1019.4 hPa | 0 mm | - | 413 W/m² | - |
| 1777236618 | 21.67° C | 26% | 1019.3 hPa | 0 mm | - | 446 W/m² | - |
| 1777236019 | 21.67° C | 26% | 1019.2 hPa | 0 mm | - | 195 W/m² | - |
| 1777235419 | 21.67° C | 26% | 1019.3 hPa | 0 mm | - | 459 W/m² | - |
| 1777234820 | 21.11° C | 26% | 1019.4 hPa | 0 mm | - | 546 W/m² | - |
| 1777234219 | 21.11° C | 27% | 1019.3 hPa | 0 mm | - | 421 W/m² | - |
| 1777233614 | 21.11° C | 27% | 1019.2 hPa | 0 mm | - | 78 W/m² | - |
| 1777233015 | 21.67° C | 26% | 1019.1 hPa | 0 mm | - | 68 W/m² | - |
| 1777232416 | 21.11° C | 27% | 1019.2 hPa | 0 mm | - | 62 W/m² | - |
| 1777231815 | 21.11° C | 25% | 1019.3 hPa | 0 mm | - | 61 W/m² | - |
| 1777231215 | 21.11° C | 27% | 1019.3 hPa | 0 mm | - | 62 W/m² | - |
| 1777230613 | 20.56° C | 28% | 1019.4 hPa | 0 mm | - | 64 W/m² | - |
| 1777230013 | 20.56° C | 26% | 1019.6 hPa | 0 mm | - | 767 W/m² | - |
| 1777229410 | 21.11° C | 27% | 1019.6 hPa | 0 mm | - | 77 W/m² | - |
| 1777228810 | 20.56° C | 26% | 1019.8 hPa | 0 mm | - | 809 W/m² | - |
| 1777228210 | 20.56° C | 27% | 1019.8 hPa | 0 mm | - | 824 W/m² | - |
| 1777227609 | 20.56° C | 27% | 1019.8 hPa | 0 mm | - | 839 W/m² | - |
| 1777227008 | 20.56° C | 27% | 1020 hPa | 0 mm | - | 853 W/m² | - |
| 1777226408 | 20° C | 28% | 1020 hPa | 0 mm | - | 868 W/m² | - |
| 1777225806 | 19.44° C | 28% | 1020.1 hPa | 0 mm | - | 881 W/m² | - |
| 1777225208 | 20° C | 30% | 1020.1 hPa | 0 mm | - | 892 W/m² | - |
| 1777224605 | 19.44° C | 34% | 1020.1 hPa | 0 mm | - | 897 W/m² | - |
| 1777224005 | 18.89° C | 33% | 1020.1 hPa | 0 mm | - | 905 W/m² | - |
* Rain latest hour (hover to see other rain measurements)
** Current wind speed in m/s (hover to see current wind gust speed)